Time;durP1;ratioP1;P1;durP2;ratioP2;P2;SDS_P1;SDS_P2;PMS_P1;PMS_P2;Temp;Humidity;BMP_temperature;BMP_pressure;BME280_temperature;BME280_humidity;BME280_pressure;Samples;Min_cycle;Max_cycle;Signal;HPM_P1;HPM_P2
2023/10/31 00:13:18;;;;;;;0.60;0.60;;;;;;;12.50;100.00;94493.44;6080562;23;20190;-87
2023/10/31 00:15:59;;;;;;;1.27;0.60;;;;;;;12.41;100.00;94469.69;6134084;23;20184;-88
2023/10/31 00:18:39;;;;;;;0.50;0.50;;;;;;;12.50;100.00;94464.25;6134876;23;20185;-87
2023/10/31 00:21:31;;;;;;;;;;;;;;;;;;;;;
2023/10/31 00:24:25;;;;;;;0.50;0.50;;;;;;;12.63;100.00;94461.53;6105378;23;20211;-87
2023/10/31 00:29:43;;;;;;;0.70;0.70;;;;;;;12.51;100.00;94443.38;6103325;23;20200;-87
2023/10/31 00:32:11;;;;;;;1.07;0.53;;;;;;;12.51;100.00;94447.78;6106614;23;20267;-87
2023/10/31 00:34:40;;;;;;;1.10;0.40;;;;;;;12.50;100.00;94439.25;6105670;23;20263;-87
2023/10/31 00:37:12;;;;;;;0.50;0.50;;;;;;;12.45;100.00;94428.75;6105930;23;20209;-89
2023/10/31 00:39:50;;;;;;;0.50;0.50;;;;;;;12.47;100.00;94431.91;6105328;23;20200;-87
2023/10/31 00:42:17;;;;;;;0.47;0.47;;;;;;;12.41;100.00;94435.34;6106074;23;20211;-87
2023/10/31 00:44:46;;;;;;;0.40;0.40;;;;;;;12.31;100.00;94455.72;6105887;23;20176;-86
2023/10/31 00:47:13;;;;;;;0.40;0.40;;;;;;;12.24;100.00;94457.56;6106411;23;20176;-87
2023/10/31 00:49:59;;;;;;;;;;;;;;;;;;;;;
2023/10/31 00:52:31;;;;;;;0.50;0.50;;;;;;;12.19;100.00;94463.38;6102624;23;20200;-87
2023/10/31 00:55:01;;;;;;;0.43;0.43;;;;;;;12.25;100.00;94464.31;6105940;23;20214;-88
2023/10/31 00:57:33;;;;;;;0.50;0.47;;;;;;;12.27;100.00;94464.91;6106294;23;20181;-88
2023/10/31 01:00:19;;;;;;;0.43;0.43;;;;;;;12.30;100.00;94472.22;6105979;23;20208;-89
2023/10/31 01:05:44;;;;;;;1.33;0.50;;;;;;;12.30;100.00;94459.31;6054308;23;20219;-87
2023/10/31 01:08:10;;;;;;;0.43;0.43;;;;;;;12.24;100.00;94465.31;6106519;23;20175;-87
2023/10/31 01:10:54;;;;;;;0.50;0.50;;;;;;;12.29;100.00;94471.44;6106375;23;20235;-87
2023/10/31 01:16:19;;;;;;;;;;;;;;;;;;;;;
2023/10/31 01:18:46;;;;;;;0.53;0.50;;;;;;;12.06;100.00;94482.34;6104475;23;20172;-87
2023/10/31 01:24:50;;;;;;;0.40;0.40;;;;;;;12.12;100.00;94491.03;6057942;23;20240;-89
2023/10/31 01:34:08;;;;;;;0.30;0.30;;;;;;;12.30;100.00;94474.78;5957501;24;20213;-87
2023/10/31 01:43:44;;;;;;;0.53;0.40;;;;;;;12.26;100.00;94482.16;5948443;24;20231;-86
2023/10/31 01:49:59;;;;;;;0.40;0.40;;;;;;;12.30;100.00;94462.69;5852200;24;20274;-87
2023/10/31 01:53:19;;;;;;;0.33;0.33;;;;;;;12.29;100.00;94463.69;5850990;24;20240;-87
2023/10/31 01:59:30;;;;;;;0.50;0.40;;;;;;;12.21;100.00;94437.34;5988472;24;20223;-89
2023/10/31 02:02:02;;;;;;;0.33;0.33;;;;;;;12.21;100.00;94448.47;5988432;24;20663;-87
2023/10/31 02:04:52;;;;;;;0.40;0.30;;;;;;;12.26;100.00;94463.31;6000507;23;20508;-86
2023/10/31 02:07:32;;;;;;;0.40;0.40;;;;;;;12.17;100.00;94474.91;6105333;23;20207;-88
2023/10/31 02:10:02;;;;;;;0.30;0.30;;;;;;;12.17;100.00;94480.84;6106315;23;20207;-89
2023/10/31 02:12:33;;;;;;;0.40;0.40;;;;;;;12.24;100.00;94478.22;6106108;23;20188;-87
2023/10/31 02:15:58;;;;;;;;;;;;;;;;;;;;;
2023/10/31 02:24:26;;;;;;;0.30;0.30;;;;;;;12.01;100.00;94505.41;6153722;23;20205;-87
2023/10/31 02:27:11;;;;;;;0.40;0.40;;;;;;;12.04;100.00;94501.63;6132500;23;20172;-88
2023/10/31 02:29:43;;;;;;;0.57;0.57;;;;;;;12.08;100.00;94508.72;6132277;23;20199;-88
2023/10/31 02:32:11;;;;;;;0.40;0.40;;;;;;;12.05;100.00;94505.78;6135120;23;20175;-89
2023/10/31 02:34:45;;;;;;;0.37;0.30;;;;;;;12.07;100.00;94514.09;6134871;23;20210;-88
2023/10/31 02:38:04;;;;;;;;;;;;;;;;;;;;;
2023/10/31 03:01:41;;;;;;;0.30;0.30;;;;;;;11.75;100.00;94508.16;5740847;24;20236;-89
2023/10/31 03:04:33;;;;;;;0.30;0.30;;;;;;;11.79;100.00;94531.78;5792520;24;20182;-88
2023/10/31 03:10:41;;;;;;;0.63;0.40;;;;;;;11.72;100.00;94555.81;6070310;23;20240;-88
2023/10/31 03:13:29;;;;;;;0.30;0.30;;;;;;;11.79;100.00;94548.03;6073258;23;20206;-87
2023/10/31 03:16:14;;;;;;;0.40;0.40;;;;;;;11.84;100.00;94545.63;6135452;23;20191;-87
2023/10/31 03:29:01;;;;;;;;;;;;;;;;;;;;;
2023/10/31 03:31:36;;;;;;;0.30;0.30;;;;;;;11.86;100.00;94522.22;5884942;24;20226;-88
2023/10/31 03:47:48;;;;;;;0.40;0.40;;;;;;;11.93;100.00;94504.91;5768786;24;20214;-87
2023/10/31 03:56:03;;;;;;;0.40;0.40;;;;;;;11.87;100.00;94503.94;5989763;23;20188;-88
2023/10/31 03:58:47;;;;;;;;;;;;;;;;;;;;;
2023/10/31 04:04:18;;;;;;;0.50;0.50;;;;;;;11.72;99.80;94517.13;6014226;23;20250;-86
2023/10/31 04:06:44;;;;;;;0.40;0.40;;;;;;;11.66;100.00;94512.78;6101669;23;20263;-86
2023/10/31 04:09:13;;;;;;;0.50;0.40;;;;;;;11.74;99.88;94509.16;6101986;23;20195;-86
2023/10/31 04:11:41;;;;;;;0.50;0.40;;;;;;;11.82;98.67;94480.56;6101957;23;20190;-86
2023/10/31 04:14:07;;;;;;;0.40;0.40;;;;;;;11.91;98.42;94486.28;6102585;23;20180;-87
2023/10/31 04:16:39;;;;;;;0.47;0.47;;;;;;;11.90;97.21;94495.00;6102096;23;20176;-88
2023/10/31 04:19:07;;;;;;;0.50;0.40;;;;;;;11.86;95.45;94470.63;6102108;23;20192;-85
2023/10/31 04:21:33;;;;;;;0.40;0.40;;;;;;;11.96;95.18;94469.13;6100427;23;20191;-87
2023/10/31 04:24:02;;;;;;;0.50;0.50;;;;;;;11.92;93.42;94449.94;6100530;23;20204;-86
2023/10/31 04:26:28;;;;;;;0.37;0.37;;;;;;;11.89;92.74;94447.78;6100683;23;20180;-85
2023/10/31 04:28:55;;;;;;;0.47;0.47;;;;;;;11.94;92.74;94449.72;6101347;23;20188;-88
2023/10/31 04:31:21;;;;;;;1.97;0.50;;;;;;;12.00;92.46;94462.56;6101080;23;20183;-86
2023/10/31 04:33:48;;;;;;;0.63;0.50;;;;;;;11.91;92.38;94468.22;6100668;23;20176;-87
2023/10/31 04:36:15;;;;;;;1.27;0.50;;;;;;;11.89;91.72;94452.16;6100378;23;20187;-86
2023/10/31 04:38:42;;;;;;;1.10;0.70;;;;;;;11.94;91.70;94447.13;6099711;23;20203;-87
2023/10/31 04:41:09;;;;;;;1.73;0.67;;;;;;;12.02;92.47;94457.19;6100067;23;20180;-86
2023/10/31 04:43:35;;;;;;;1.13;0.60;;;;;;;12.05;92.05;94449.81;6097627;23;20196;-87
2023/10/31 04:46:02;;;;;;;0.63;0.50;;;;;;;12.07;91.76;94440.06;6096888;23;20188;-86
2023/10/31 04:48:28;;;;;;;0.97;0.70;;;;;;;12.13;92.18;94443.56;6097441;23;20183;-87
2023/10/31 04:50:56;;;;;;;0.50;0.50;;;;;;;12.06;91.77;94437.72;6096956;23;20200;-86
2023/10/31 04:53:24;;;;;;;0.50;0.50;;;;;;;12.07;91.68;94431.53;6097437;23;20172;-87
2023/10/31 04:55:50;;;;;;;1.57;0.70;;;;;;;12.06;92.35;94451.41;6097312;23;20183;-87
2023/10/31 04:58:18;;;;;;;0.63;0.63;;;;;;;12.07;92.45;94452.97;6096103;23;20195;-86
2023/10/31 05:00:45;;;;;;;1.20;0.60;;;;;;;12.04;91.18;94426.81;6096256;23;20792;-86
2023/10/31 05:03:11;;;;;;;1.80;0.60;;;;;;;12.00;91.33;94431.59;6096085;23;20672;-86
2023/10/31 05:05:38;;;;;;;1.17;0.50;;;;;;;12.02;91.35;94439.91;6095920;23;20176;-86
2023/10/31 05:15:02;;;;;;;1.33;0.70;;;;;;;11.95;92.51;94466.75;5847072;24;20711;-85
2023/10/31 05:18:02;;;;;;;0.70;0.43;;;;;;;12.00;92.04;94466.94;5863321;24;20180;-85
2023/10/31 05:20:59;;;;;;;0.97;0.70;;;;;;;12.00;92.57;94480.63;5983976;23;20220;-86
2023/10/31 05:23:38;;;;;;;5.70;5.20;;;;;;;11.98;93.22;94499.88;6014320;23;20234;-87
2023/10/31 05:26:28;;;;;;;1.43;0.90;;;;;;;11.89;93.86;94509.69;6014459;23;20163;-85
2023/10/31 05:28:54;;;;;;;0.90;0.60;;;;;;;11.88;93.76;94513.25;6015337;23;20182;-86
2023/10/31 05:31:31;;;;;;;0.60;0.60;;;;;;;11.83;94.58;94527.78;6015771;23;20216;-86
2023/10/31 05:34:10;;;;;;;0.67;0.67;;;;;;;11.89;94.74;94539.84;6045772;23;20183;-88
2023/10/31 05:36:53;;;;;;;0.70;0.67;;;;;;;11.77;95.11;94548.25;6104402;23;20168;-87
2023/10/31 05:39:19;;;;;;;0.80;0.70;;;;;;;11.73;96.04;94565.13;6103324;23;20227;-86
2023/10/31 05:41:52;;;;;;;0.70;0.60;;;;;;;11.71;96.57;94579.22;6103573;23;20211;-88
2023/10/31 05:44:28;;;;;;;0.90;0.70;;;;;;;11.68;96.93;94588.16;6103329;23;20196;-87
2023/10/31 05:46:58;;;;;;;2.70;0.70;;;;;;;11.69;98.24;94592.31;6101268;23;20164;-87
2023/10/31 05:52:16;;;;;;;1.00;0.70;;;;;;;11.74;98.51;94602.78;6099766;23;20176;-86
2023/10/31 05:54:43;;;;;;;2.23;0.90;;;;;;;11.81;99.00;94617.47;6103143;23;20177;-87
2023/10/31 05:57:11;;;;;;;1.13;0.70;;;;;;;11.70;97.60;94604.22;6103076;23;20696;-87
2023/10/31 05:59:51;;;;;;;1.10;0.70;;;;;;;11.66;97.16;94590.16;6104414;23;20231;-86
2023/10/31 06:02:19;;;;;;;0.70;0.70;;;;;;;11.76;98.04;94607.75;6101871;23;20865;-87
2023/10/31 06:04:45;;;;;;;3.17;1.03;;;;;;;11.83;98.30;94624.00;6103509;23;20204;-87
2023/10/31 06:07:12;;;;;;;1.20;0.80;;;;;;;11.93;97.69;94618.41;6102491;23;20180;-87
2023/10/31 06:09:38;;;;;;;2.23;0.80;;;;;;;11.90;96.71;94600.75;6102601;23;20261;-87
2023/10/31 06:12:12;;;;;;;1.53;1.17;;;;;;;11.93;96.22;94595.94;6103391;23;20183;-86
2023/10/31 06:14:43;;;;;;;2.70;2.03;;;;;;;11.95;96.36;94593.94;6101611;23;20188;-86
2023/10/31 06:17:15;;;;;;;1.17;1.00;;;;;;;11.93;96.84;94601.09;6101789;23;20164;-86
2023/10/31 06:19:54;;;;;;;2.50;1.10;;;;;;;11.99;97.40;94609.81;6100788;23;20251;-87
2023/10/31 06:22:27;;;;;;;1.17;1.07;;;;;;;11.98;97.04;94605.66;6101806;23;20176;-87
2023/10/31 06:24:54;;;;;;;3.20;0.90;;;;;;;12.02;96.63;94606.81;6101231;23;20215;-88
2023/10/31 06:31:10;;;;;;;1.17;1.03;;;;;;;11.96;95.77;94616.16;5960533;24;20203;-87
2023/10/31 06:36:52;;;;;;;0.70;0.70;;;;;;;11.93;96.71;94623.56;6092380;23;20168;-86
2023/10/31 06:40:27;;;;;;;0.90;0.90;;;;;;;11.93;96.80;94623.56;6099777;23;20196;-87
2023/10/31 06:43:21;;;;;;;0.90;0.90;;;;;;;11.96;96.91;94626.47;6011578;23;20189;-87
2023/10/31 06:45:47;;;;;;;1.17;0.90;;;;;;;11.89;96.13;94619.81;6032717;23;20180;-86
2023/10/31 06:48:18;;;;;;;1.23;0.93;;;;;;;11.91;96.47;94620.38;6096059;23;20258;-87
2023/10/31 06:50:45;;;;;;;1.23;0.90;;;;;;;11.97;96.31;94628.06;6096080;23;20231;-86
2023/10/31 06:53:18;;;;;;;1.40;0.80;;;;;;;12.01;96.91;94625.88;6098197;23;20180;-86
2023/10/31 06:55:51;;;;;;;1.63;0.83;;;;;;;12.05;95.77;94633.00;6096643;23;20247;-87
2023/10/31 06:58:18;;;;;;;1.77;0.73;;;;;;;11.99;95.57;94630.44;6096644;23;20165;-86
2023/10/31 07:00:48;;;;;;;0.83;0.80;;;;;;;11.89;95.18;94630.91;6095759;23;20224;-87
2023/10/31 07:03:19;;;;;;;0.70;0.60;;;;;;;11.83;94.73;94631.72;6098881;23;20184;-86
2023/10/31 07:05:50;;;;;;;1.00;0.97;;;;;;;11.82;94.99;94637.88;6102836;23;20164;-86
2023/10/31 07:14:05;;;;;;;;;;;;;;;;;;;;;
2023/10/31 07:16:35;;;;;;;0.73;0.73;;;;;;;12.01;94.71;94647.28;6095090;23;20268;-87
2023/10/31 07:19:01;;;;;;;1.37;1.00;;;;;;;12.00;93.62;94629.44;6095526;23;20272;-86
2023/10/31 07:21:28;;;;;;;0.70;0.70;;;;;;;11.97;92.50;94610.00;6097986;23;20235;-86
2023/10/31 07:23:56;;;;;;;1.43;1.07;;;;;;;11.89;91.71;94584.47;6097073;23;20196;-87
2023/10/31 07:26:23;;;;;;;3.60;0.97;;;;;;;11.93;92.86;94600.34;6098618;23;20180;-86
2023/10/31 07:28:50;;;;;;;1.13;0.80;;;;;;;11.96;91.23;94582.63;6100250;23;20180;-86
2023/10/31 07:31:16;;;;;;;1.00;0.87;;;;;;;11.95;89.18;94552.69;6099146;23;20232;-85
2023/10/31 07:33:44;;;;;;;1.50;1.10;;;;;;;11.88;87.39;94504.75;6098555;23;20187;-87
2023/10/31 07:36:11;;;;;;;1.20;1.07;;;;;;;11.98;87.82;94518.72;6099475;23;20180;-86
2023/10/31 07:38:37;;;;;;;1.70;0.90;;;;;;;11.91;87.74;94518.00;6100407;23;20668;-87
2023/10/31 07:41:08;;;;;;;2.60;1.00;;;;;;;11.98;86.54;94499.88;6099080;23;20222;-86
2023/10/31 07:43:34;;;;;;;1.23;0.90;;;;;;;12.08;86.15;94495.03;6098305;23;20185;-86
2023/10/31 07:46:01;;;;;;;0.97;0.80;;;;;;;12.06;85.26;94478.97;6098509;23;20199;-86
2023/10/31 07:48:27;;;;;;;1.40;1.00;;;;;;;12.06;84.38;94473.81;6101796;23;20182;-87
2023/10/31 07:50:54;;;;;;;2.03;1.07;;;;;;;12.07;84.58;94478.78;6101770;23;20211;-84
2023/10/31 07:53:20;;;;;;;1.27;0.90;;;;;;;12.07;84.79;94488.31;6097690;23;20273;-86
2023/10/31 07:55:47;;;;;;;1.97;0.93;;;;;;;12.06;83.95;94482.34;6098312;23;20180;-87
2023/10/31 07:58:15;;;;;;;0.93;0.77;;;;;;;11.97;83.54;94480.25;6101779;23;20255;-85
2023/10/31 08:00:41;;;;;;;0.90;0.80;;;;;;;11.95;82.77;94449.50;6103239;23;20200;-89
2023/10/31 08:03:13;;;;;;;1.83;0.80;;;;;;;11.98;82.50;94443.91;6101072;23;20172;-87
2023/10/31 08:05:39;;;;;;;1.10;0.90;;;;;;;12.00;82.56;94441.13;6101277;23;20515;-86
2023/10/31 08:08:06;;;;;;;1.07;0.80;;;;;;;12.04;83.30;94439.72;6102086;23;20188;-87
2023/10/31 08:10:34;;;;;;;5.00;1.13;;;;;;;12.05;83.71;94452.41;6100433;23;20196;-86
2023/10/31 08:13:00;;;;;;;1.03;0.80;;;;;;;12.00;81.46;94410.19;6101153;23;20184;-86
2023/10/31 08:15:28;;;;;;;1.37;0.90;;;;;;;11.99;82.70;94442.13;6100311;23;20194;-86
2023/10/31 08:17:54;;;;;;;1.87;0.90;;;;;;;11.99;81.34;94418.91;6100290;23;20643;-86
2023/10/31 08:20:21;;;;;;;0.80;0.80;;;;;;;11.94;81.11;94429.88;6101348;23;20204;-86
2023/10/31 08:22:54;;;;;;;3.23;1.10;;;;;;;12.05;82.12;94461.94;6100419;23;20161;-87
2023/10/31 08:25:22;;;;;;;1.43;0.80;;;;;;;11.94;80.38;94442.75;6101678;23;20268;-85
2023/10/31 08:27:49;;;;;;;1.50;0.80;;;;;;;11.89;80.52;94452.16;6102745;23;20184;-86
2023/10/31 08:30:15;;;;;;;1.47;1.20;;;;;;;11.88;80.40;94461.69;6101859;23;20207;-85
2023/10/31 08:32:43;;;;;;;1.73;0.97;;;;;;;11.88;80.65;94479.75;6102227;23;20271;-87
2023/10/31 08:35:10;;;;;;;3.57;1.10;;;;;;;11.93;80.68;94494.59;6100598;23;20172;-87
2023/10/31 08:37:36;;;;;;;2.33;0.90;;;;;;;11.96;80.63;94509.63;6098455;23;20184;-86
2023/10/31 08:40:04;;;;;;;1.87;0.97;;;;;;;11.90;79.55;94490.63;6100300;23;20200;-87
2023/10/31 08:42:31;;;;;;;1.77;0.90;;;;;;;11.98;80.15;94518.72;6102355;23;20180;-87
2023/10/31 08:44:57;;;;;;;2.37;1.17;;;;;;;12.02;80.72;94524.25;6098928;23;20235;-85
2023/10/31 08:47:28;;;;;;;3.53;0.90;;;;;;;12.11;79.90;94510.09;6101390;23;20211;-85
2023/10/31 08:49:55;;;;;;;1.47;1.00;;;;;;;12.18;80.64;94523.72;6102168;23;20196;-85
2023/10/31 08:52:22;;;;;;;2.73;0.80;;;;;;;12.15;79.53;94494.97;6100418;23;20176;-86
2023/10/31 08:54:51;;;;;;;1.60;0.83;;;;;;;12.01;78.87;94481.41;6099417;23;20176;-86
2023/10/31 08:57:17;;;;;;;2.07;1.10;;;;;;;11.97;79.37;94500.88;6095556;23;20684;-86
2023/10/31 08:59:44;;;;;;;1.97;1.10;;;;;;;12.09;79.35;94510.31;6097006;23;20207;-85
2023/10/31 09:02:10;;;;;;;1.60;1.00;;;;;;;12.19;79.41;94512.41;6099789;23;20180;-87
2023/10/31 09:04:37;;;;;;;2.10;1.00;;;;;;;12.32;79.85;94524.38;6100794;23;20199;-87
2023/10/31 09:07:05;;;;;;;1.97;1.30;;;;;;;12.28;78.44;94494.88;6100713;23;20176;-86
2023/10/31 09:09:31;;;;;;;2.53;1.20;;;;;;;12.23;78.98;94503.22;6100698;23;20196;-86
2023/10/31 09:11:57;;;;;;;2.40;0.90;;;;;;;12.23;77.83;94484.38;6099103;23;20184;-87
2023/10/31 09:14:24;;;;;;;3.20;0.97;;;;;;;12.25;78.29;94497.88;6101689;23;20182;-86
2023/10/31 09:19:43;;;;;;;3.17;1.30;;;;;;;12.28;78.17;94503.41;6095206;23;20331;-85
2023/10/31 09:22:11;;;;;;;2.53;1.10;;;;;;;12.27;79.03;94517.31;6099839;23;20180;-86
2023/10/31 09:24:42;;;;;;;2.30;1.00;;;;;;;12.26;77.89;94502.81;6099292;23;20199;-87
2023/10/31 09:27:11;;;;;;;2.57;1.00;;;;;;;12.26;77.38;94474.44;6098135;23;20168;-87
2023/10/31 09:29:48;;;;;;;1.40;1.00;;;;;;;12.30;77.20;94485.91;6097714;23;20200;-87
2023/10/31 09:32:16;;;;;;;1.50;0.90;;;;;;;12.28;77.26;94482.75;6099488;23;20164;-86
2023/10/31 09:34:46;;;;;;;2.00;1.00;;;;;;;12.25;76.79;94472.06;6098192;23;20176;-86
2023/10/31 09:37:14;;;;;;;3.40;1.13;;;;;;;12.31;77.02;94491.88;6098396;23;20164;-86
2023/10/31 09:39:49;;;;;;;4.00;1.40;;;;;;;12.39;77.33;94486.41;6099117;23;20188;-86
2023/10/31 09:42:15;;;;;;;3.43;1.30;;;;;;;12.38;77.10;94497.72;6098490;23;20168;-87
2023/10/31 09:44:44;;;;;;;2.77;1.00;;;;;;;12.41;77.12;94503.25;6098770;23;20203;-86
2023/10/31 09:47:10;;;;;;;2.03;0.97;;;;;;;12.52;77.10;94508.69;6100094;23;20508;-86
2023/10/31 09:49:40;;;;;;;3.67;1.20;;;;;;;12.43;76.73;94490.94;6101404;23;20228;-87
2023/10/31 09:52:07;;;;;;;2.13;1.00;;;;;;;12.37;76.63;94493.56;6101284;23;20216;-87
2023/10/31 09:54:40;;;;;;;1.23;0.83;;;;;;;12.40;76.66;94477.66;6100056;23;20183;-86
2023/10/31 09:57:11;;;;;;;3.10;1.10;;;;;;;12.31;76.76;94472.00;6102725;23;20161;-86
2023/10/31 09:59:39;;;;;;;3.27;1.10;;;;;;;12.32;77.11;94481.28;6101264;23;20204;-87
2023/10/31 10:02:09;;;;;;;2.50;1.00;;;;;;;12.43;77.54;94495.31;6102221;23;20175;-86
2023/10/31 10:04:37;;;;;;;3.30;1.27;;;;;;;12.47;76.58;94475.81;6102674;23;20236;-88
2023/10/31 10:07:04;;;;;;;3.70;1.10;;;;;;;12.51;76.69;94487.25;6101476;23;20783;-86
2023/10/31 10:09:37;;;;;;;7.90;2.00;;;;;;;12.61;76.69;94500.47;6101627;23;20232;-85
2023/10/31 10:12:06;;;;;;;3.63;1.53;;;;;;;12.59;76.26;94493.94;6099975;23;20161;-86
2023/10/31 10:14:33;;;;;;;2.40;1.40;;;;;;;12.54;76.44;94497.16;6098711;23;20188;-87
2023/10/31 10:16:59;;;;;;;2.93;1.20;;;;;;;12.59;76.57;94520.53;6098741;23;20181;-86
2023/10/31 10:19:26;;;;;;;3.20;1.10;;;;;;;12.56;75.53;94502.09;6098624;23;20196;-88
2023/10/31 10:21:56;;;;;;;1.67;0.90;;;;;;;12.50;74.88;94484.91;6099326;23;20188;-85
2023/10/31 10:24:24;;;;;;;4.10;1.50;;;;;;;12.57;75.06;94489.00;6100708;23;20184;-87
2023/10/31 10:26:52;;;;;;;2.40;1.03;;;;;;;12.63;75.07;94495.09;6099832;23;20236;-86
2023/10/31 10:29:18;;;;;;;1.77;1.10;;;;;;;12.60;74.43;94467.13;6100030;23;20197;-85
2023/10/31 10:31:47;;;;;;;3.90;1.33;;;;;;;12.63;74.78;94472.66;6097815;23;20271;-87
2023/10/31 10:34:15;;;;;;;1.07;0.90;;;;;;;12.65;74.74;94477.59;6100112;23;20172;-86
2023/10/31 10:36:50;;;;;;;2.47;0.90;;;;;;;12.55;74.45;94483.25;6098641;23;20180;-87
2023/10/31 10:39:20;;;;;;;2.63;0.90;;;;;;;12.53;74.41;94472.34;6098599;23;20200;-86
2023/10/31 10:41:50;;;;;;;2.37;1.00;;;;;;;12.55;74.08;94460.00;6099115;23;20161;-87
2023/10/31 10:44:27;;;;;;;2.77;1.13;;;;;;;12.67;74.21;94475.59;6099807;23;20431;-87
2023/10/31 10:46:56;;;;;;;1.63;1.00;;;;;;;12.61;73.93;94474.66;6097736;23;20175;-87
2023/10/31 10:49:26;;;;;;;1.10;0.77;;;;;;;12.58;74.66;94484.63;6098404;23;20200;-86
2023/10/31 10:51:56;;;;;;;2.70;1.23;;;;;;;12.69;74.61;94489.88;6097998;23;20504;-85
2023/10/31 10:54:28;;;;;;;1.50;1.00;;;;;;;12.79;74.29;94479.81;6095625;23;20243;-86
2023/10/31 10:56:56;;;;;;;2.67;0.90;;;;;;;12.77;73.68;94452.59;6099391;23;20164;-86
2023/10/31 10:59:36;;;;;;;2.30;1.10;;;;;;;12.79;73.51;94448.00;6096572;23;20722;-86
2023/10/31 11:02:07;;;;;;;1.33;0.93;;;;;;;12.79;73.01;94420.38;6096833;23;20179;-85
2023/10/31 11:04:34;;;;;;;3.07;1.30;;;;;;;12.78;72.90;94426.56;6095959;23;20187;-85
2023/10/31 11:07:02;;;;;;;3.40;0.83;;;;;;;12.84;72.67;94424.91;6094795;23;20180;-87
2023/10/31 11:09:30;;;;;;;7.43;1.30;;;;;;;12.93;72.63;94427.97;6096530;23;20200;-85
2023/10/31 11:11:58;;;;;;;2.23;1.27;;;;;;;12.98;72.20;94412.59;6097517;23;20255;-86
2023/10/31 11:14:27;;;;;;;1.10;1.00;;;;;;;13.02;72.62;94424.06;6096762;23;20237;-87
2023/10/31 11:16:56;;;;;;;3.33;1.40;;;;;;;13.05;72.33;94411.50;6098885;23;20186;-86
2023/10/31 11:19:25;;;;;;;3.03;1.13;;;;;;;13.06;71.99;94407.91;6095549;23;20200;-86
2023/10/31 11:21:55;;;;;;;3.10;0.83;;;;;;;13.12;72.36;94391.50;6097098;23;20188;-86
2023/10/31 11:24:23;;;;;;;2.53;1.03;;;;;;;13.13;72.30;94423.31;6098251;23;20179;-86
2023/10/31 11:26:53;;;;;;;1.90;1.00;;;;;;;13.12;70.70;94363.09;6098052;23;20184;-86
2023/10/31 11:29:20;;;;;;;2.27;1.10;;;;;;;13.24;70.73;94362.38;6098787;23;20203;-87
2023/10/31 11:31:48;;;;;;;1.87;0.80;;;;;;;13.34;70.69;94360.78;6099256;23;20180;-86
2023/10/31 11:34:18;;;;;;;1.90;0.97;;;;;;;13.39;70.13;94355.75;6099729;23;20180;-85
2023/10/31 11:36:45;;;;;;;2.20;1.13;;;;;;;13.36;69.15;94321.78;6104899;23;20192;-86
2023/10/31 11:39:16;;;;;;;2.13;1.00;;;;;;;13.41;69.32;94324.50;6105105;23;20275;-88
2023/10/31 11:41:50;;;;;;;2.43;1.03;;;;;;;13.31;68.97;94299.19;6104420;23;20169;-86
2023/10/31 11:44:18;;;;;;;3.37;1.03;;;;;;;13.29;68.64;94277.94;6103884;23;20212;-87
2023/10/31 11:46:48;;;;;;;1.60;1.00;;;;;;;13.25;68.95;94301.91;6104271;23;20663;-87
2023/10/31 11:49:16;;;;;;;2.53;0.90;;;;;;;13.23;68.51;94280.66;6104323;23;20256;-86
2023/10/31 11:51:45;;;;;;;2.30;1.00;;;;;;;13.24;68.23;94254.59;6103613;23;20177;-87
2023/10/31 11:54:14;;;;;;;5.40;1.33;;;;;;;13.33;68.64;94283.47;6103824;23;20624;-86
2023/10/31 11:56:40;;;;;;;2.87;0.90;;;;;;;13.32;67.91;94256.84;6103799;23;20259;-86
2023/10/31 11:59:07;;;;;;;2.07;1.30;;;;;;;13.31;68.03;94269.97;6103146;23;20179;-86
2023/10/31 12:01:34;;;;;;;2.07;0.90;;;;;;;13.33;67.93;94265.38;6103020;23;20179;-86
2023/10/31 12:04:01;;;;;;;1.77;1.20;;;;;;;13.37;68.10;94263.91;6103338;23;20187;-86
2023/10/31 12:06:28;;;;;;;2.23;1.00;;;;;;;13.39;68.54;94285.16;6103641;23;20200;-87
2023/10/31 12:09:00;;;;;;;0.90;0.70;;;;;;;13.39;68.06;94267.06;6101752;23;20180;-85
2023/10/31 12:11:27;;;;;;;2.03;0.87;;;;;;;13.36;68.32;94275.25;6107117;23;20164;-86
2023/10/31 12:13:55;;;;;;;2.25;0.90;;;;;;;13.49;68.50;94282.78;6108327;23;20211;-86
2023/10/31 12:16:25;;;;;;;1.43;0.77;;;;;;;13.57;68.77;94307.53;6106592;23;20183;-85
2023/10/31 12:18:55;;;;;;;3.00;0.90;;;;;;;13.66;68.90;94303.59;6106122;23;20186;-87
2023/10/31 12:21:39;;;;;;;1.50;1.40;;;;;;;13.63;68.75;94293.69;6107663;23;20188;-87
2023/10/31 12:24:07;;;;;;;3.07;1.60;;;;;;;13.70;68.79;94289.97;6103574;23;20176;-86
2023/10/31 12:26:34;;;;;;;3.40;1.10;;;;;;;13.66;67.48;94244.09;6106617;23;20698;-86
2023/10/31 12:29:09;;;;;;;2.27;1.10;;;;;;;13.75;67.93;94261.63;6105787;23;20184;-87
2023/10/31 12:31:35;;;;;;;1.90;0.90;;;;;;;13.77;67.99;94259.59;6106409;23;20175;-89
2023/10/31 12:34:05;;;;;;;1.90;1.10;;;;;;;13.70;67.85;94264.09;6104882;23;20176;-86
2023/10/31 12:36:32;;;;;;;2.63;1.00;;;;;;;13.73;67.74;94261.06;6104994;23;20689;-86
2023/10/31 12:39:00;;;;;;;2.00;1.03;;;;;;;13.72;67.47;94241.38;6105437;23;20180;-87
2023/10/31 12:41:27;;;;;;;2.20;0.90;;;;;;;13.70;67.68;94245.19;6105150;23;20183;-85
2023/10/31 12:43:54;;;;;;;1.20;1.00;;;;;;;13.67;66.64;94228.34;6106406;23;20180;-88
2023/10/31 12:46:29;;;;;;;0.85;0.73;;;;;;;13.64;67.06;94228.03;6104949;23;20227;-86
2023/10/31 12:48:55;;;;;;;1.15;0.85;;;;;;;13.64;67.38;94248.72;6105331;23;20180;-87
2023/10/31 12:51:22;;;;;;;1.00;0.77;;;;;;;13.57;67.81;94268.72;6107099;23;20181;-87
2023/10/31 12:53:49;;;;;;;1.17;0.80;;;;;;;13.43;68.81;94304.38;6105729;23;20250;-87
2023/10/31 12:56:42;;;;;;;2.23;0.97;;;;;;;13.31;69.87;94352.69;6104681;23;20176;-89
2023/10/31 12:59:10;;;;;;;3.73;1.13;;;;;;;13.23;70.44;94374.50;6105271;23;20188;-86
2023/10/31 13:01:43;;;;;;;2.30;0.97;;;;;;;13.17;71.49;94414.16;6104758;23;20181;-87
2023/10/31 13:04:27;;;;;;;3.93;1.60;;;;;;;13.20;71.60;94420.69;6105114;23;20170;-87
2023/10/31 13:07:01;;;;;;;3.10;1.67;;;;;;;13.25;72.87;94459.59;6102238;23;20675;-86
2023/10/31 13:09:31;;;;;;;4.17;1.57;;;;;;;13.23;72.35;94451.25;6103042;23;20271;-87
2023/10/31 13:12:10;;;;;;;3.50;0.80;;;;;;;13.25;72.96;94475.88;6103160;23;20180;-87
2023/10/31 13:14:38;;;;;;;4.20;1.27;;;;;;;13.17;74.20;94517.53;6102228;23;20164;-86
2023/10/31 13:17:05;;;;;;;2.63;0.73;;;;;;;13.11;77.25;94601.84;6101860;23;20224;-86
2023/10/31 13:19:31;;;;;;;0.80;0.70;;;;;;;13.14;79.50;94650.53;6101742;23;20204;-86
2023/10/31 13:21:58;;;;;;;2.43;0.80;;;;;;;13.06;78.94;94643.06;6102212;23;20180;-87
2023/10/31 13:24:24;;;;;;;2.30;0.83;;;;;;;13.03;78.98;94637.53;6102160;23;20184;-86
2023/10/31 13:26:51;;;;;;;1.33;0.70;;;;;;;13.01;78.93;94637.75;6101161;23;20616;-86
2023/10/31 13:29:19;;;;;;;1.13;0.73;;;;;;;13.03;78.97;94633.16;6102074;23;20208;-86
2023/10/31 13:31:46;;;;;;;1.93;0.83;;;;;;;13.00;79.33;94641.34;6102188;23;20267;-86
2023/10/31 13:34:12;;;;;;;5.77;0.70;;;;;;;13.06;78.92;94644.88;6101279;23;20184;-85
2023/10/31 13:36:38;;;;;;;1.60;0.70;;;;;;;12.97;78.63;94638.38;6103681;23;20176;-87
2023/10/31 13:39:05;;;;;;;0.70;0.63;;;;;;;13.02;79.31;94656.63;6103150;23;20184;-87
2023/10/31 13:41:32;;;;;;;0.80;0.70;;;;;;;12.99;79.79;94682.88;6105058;23;20204;-89
2023/10/31 13:43:59;;;;;;;0.83;0.60;;;;;;;12.87;80.63;94697.50;6103482;23;20231;-88
2023/10/31 13:46:26;;;;;;;0.70;0.70;;;;;;;12.74;81.69;94719.84;6103426;23;20200;-87
2023/10/31 13:48:53;;;;;;;1.70;0.80;;;;;;;12.74;82.19;94725.00;6101909;23;20188;-85
2023/10/31 13:51:20;;;;;;;1.00;0.70;;;;;;;12.75;82.96;94739.50;6102877;23;20184;-86
2023/10/31 13:53:46;;;;;;;0.80;0.67;;;;;;;12.75;83.16;94742.09;6101069;23;20181;-87
2023/10/31 13:56:13;;;;;;;1.20;1.03;;;;;;;12.81;83.15;94748.22;6099567;23;20179;-85
2023/10/31 13:58:42;;;;;;;0.67;0.67;;;;;;;12.86;82.62;94740.63;6101715;23;20182;-86
2023/10/31 14:01:08;;;;;;;0.60;0.60;;;;;;;12.91;82.32;94735.59;6101053;23;20196;-86
2023/10/31 14:03:36;;;;;;;1.17;0.67;;;;;;;12.96;82.04;94733.19;6100471;23;20176;-85
2023/10/31 14:06:02;;;;;;;1.00;0.60;;;;;;;12.90;81.18;94715.16;6100998;23;20199;-86
2023/10/31 14:08:29;;;;;;;0.60;0.60;;;;;;;13.01;80.84;94715.25;6100122;23;20180;-87
2023/10/31 14:10:56;;;;;;;0.70;0.70;;;;;;;12.99;80.40;94708.72;6100539;23;20200;-85
2023/10/31 14:13:23;;;;;;;0.53;0.50;;;;;;;12.98;79.15;94684.69;6100337;23;20622;-85